Latest Coastal Weather Observations for Strahan

IDT60701

Issued at 2:42 pm EST Wednesday 22 May 2019 (issued every 10 minutes, with the page automatically refreshed every 10 minutes)

About coastal observations | Map of coastal stations | Coastal observations for TAS | Marine services | Other Formats
Station Details ID: 097072 Name: STRAHAN AERODROME Lat: -42.16 Lon: 145.29 Height: 21.0 m
Data from the previous 72 hours. | See also: Recent months at Strahan
Date/Time
EST
Wind Sea
Height
m
Swell Vis
km
Cloud Weather Temp
°C
Press
hPa
Rain since
9am
mm
Dir  Spd
kts
Gust
kts
Height
m
Period
s
Dir
22/02:30pm NW 16 22 - - - - 10 Partly cloudy - 14.7 1024.1 0.0
22/02:00pm NW 16 21 - - - - 10 Partly cloudy - 15.1 1024.2 0.0
22/01:30pm NW 16 20 - - - - 10 Partly cloudy - 14.7 1024.3 0.0
22/01:00pm NW 15 21 - - - - 10 Partly cloudy - 15.6 1024.4 0.0
22/12:30pm NW 14 19 - - - - 10 Partly cloudy - 15.3 1024.6 0.0
22/12:00pm NNW 13 17 - - - - 10 Cloudy - 15.0 1024.8 0.0
22/11:30am NNW 12 17 - - - - 10 Cloudy - 14.8 1025.0 0.0
22/11:00am NNW 12 16 - - - - 10 Partly cloudy - 14.4 1025.1 0.0
22/10:30am NNW 11 14 - - - - 10 Cloudy - 14.8 1025.1 0.0
22/10:00am N 9 13 - - - - 10 Cloudy - 13.7 1024.8 0.0
22/09:30am N 9 11 - - - - 10 Partly cloudy - 13.0 1024.8 0.0
22/09:00am NNE 5 8 - - - - 10 Partly cloudy - 12.0 1024.6 1.6
22/08:30am NNW 7 8 - - - - 10 Cloudy - 12.2 1024.4 1.6
22/08:00am NW 7 8 - - - - 10 Partly cloudy - 10.8 1024.3 1.6
22/07:30am WNW 9 14 - - - - 10 Partly cloudy - 12.1 1024.1 1.6
22/07:00am WNW 11 17 - - - - 10 Partly cloudy - 12.5 1023.7 1.6
22/06:30am NW 14 21 - - - - 10 Partly cloudy - 12.8 1023.4 1.6
22/06:00am NW 11 15 - - - - 10 Mostly cloudy - 12.3 1022.9 1.6
22/05:30am NW 12 15 - - - - 10 - - 12.0 1022.6 1.6
22/05:00am NW 11 14 - - - - 10 Partly cloudy - 11.9 1022.5 1.6
22/04:30am WNW 12 16 - - - - 10 Partly cloudy - 12.4 1022.2 1.6
22/04:00am WNW 12 16 - - - - 10 Partly cloudy - 12.3 1021.9 1.6
22/03:30am NW 12 19 - - - - 10 Partly cloudy - 12.4 1021.8 1.6
22/03:00am WNW 11 15 - - - - 10 Mostly cloudy - 12.7 1021.7 1.6
22/02:30am W 14 21 - - - - 10 Partly cloudy - 13.1 1021.7 1.6
22/02:00am NW 12 19 - - - - 10 Partly cloudy - 13.0 1021.4 1.6
22/01:30am NW 12 17 - - - - - Partly cloudy - 13.1 1021.4 1.6
22/01:00am WNW 12 17 - - - - - Partly cloudy - 13.4 1021.3 1.6
22/12:30am NW 13 18 - - - - - Partly cloudy - 13.2 1021.1 1.6
22/12:00am NW 15 21 - - - - - Cloudy Recent precip. 13.5 1020.9 1.6
 
Date/Time
EST
Wind Sea
Height
m
Swell Vis
km
Cloud Weather Temp
°C
Press
hPa
Rain since
9am
mm
Dir  Spd
kts
Gust
kts
Height
m
Period
s
Dir
21/11:30pm NW 17 23 - - - - - Partly cloudy - 13.7 1020.5 1.6
21/11:26pm NW 17 23 - - - - - Partly cloudy - 13.7 1020.5 1.6
21/11:00pm NW 12 17 - - - - - Partly cloudy - 14.3 1020.3 1.0
21/10:48pm NW 14 21 - - - - - Partly cloudy - 14.2 1020.2 0.4
21/10:30pm NNW 15 20 - - - - - Partly cloudy - 14.2 1020.2 0.4
21/10:00pm NNW 15 21 - - - - - Partly cloudy - 14.2 1020.0 0.4
21/09:41pm NNW 15 20 - - - - - Partly cloudy - 14.0 1020.0 0.4
21/09:30pm NNW 14 19 - - - - - Partly cloudy - 14.0 1019.9 0.4
21/09:00pm NNW 13 19 - - - - - Cloudy - 14.3 1019.6 0.0
21/08:30pm N 10 13 - - - - - Partly cloudy - 13.9 1019.6 0.0
21/08:00pm N 11 16 - - - - - Partly cloudy - 13.7 1019.4 0.0
21/07:43pm NNW 9 12 - - - - 9 Partly cloudy - 13.8 1019.4 0.0
21/07:30pm NNW 12 19 - - - - 10 Partly cloudy - 13.8 1019.2 0.0
21/07:00pm NNW 13 16 - - - - 10 Partly cloudy - 14.2 1018.9 0.0
21/06:30pm NW 15 21 - - - - 10 Partly cloudy - 14.1 1018.9 0.0
21/06:00pm NW 13 19 - - - - 10 Cloudy - 14.3 1018.7 0.0
21/05:30pm NW 12 16 - - - - 10 Partly cloudy - 14.3 1018.5 0.0
21/05:00pm NNW 14 18 - - - - 10 Partly cloudy - 14.6 1018.1 0.0
21/04:30pm NW 15 21 - - - - 10 Partly cloudy - 14.8 1018.1 0.0
21/04:00pm NNW 14 18 - - - - 10 Partly cloudy - 14.7 1017.9 0.0
21/03:30pm NW 15 20 - - - - 10 Partly cloudy - 14.8 1017.8 0.0
21/03:00pm NW 15 19 - - - - 10 Cloudy - 14.8 1017.6 0.0
21/02:30pm NNW 14 19 - - - - 10 Partly cloudy - 15.0 1017.3 0.0
21/02:00pm NW 14 20 - - - - 10 Partly cloudy - 15.0 1017.3 0.0
21/01:30pm NW 14 20 - - - - 10 Partly cloudy - 15.3 1017.3 0.0
21/01:00pm NW 16 20 - - - - 10 Cloudy - 15.0 1017.3 0.0
21/12:30pm NW 16 23 - - - - 10 Partly cloudy - 14.9 1017.4 0.0
21/12:00pm WNW 17 22 - - - - 10 Cloudy - 14.6 1017.6 0.0
21/11:30am NW 15 21 - - - - 10 Partly cloudy - 14.6 1017.6 0.0
21/11:00am NW 16 21 - - - - 10 Partly cloudy - 14.3 1017.6 0.0
21/10:30am NW 15 23 - - - - 10 Partly cloudy - 13.6 1017.4 0.0
21/10:24am NW 16 23 - - - - 10 Partly cloudy - 13.6 1017.4 0.0
21/10:00am NNW 12 15 - - - - 10 Partly cloudy - 13.9 1017.2 0.0
21/09:53am NNW 12 16 - - - - 10 Partly cloudy - 13.6 1017.3 0.0
21/09:30am NNW 11 14 - - - - 10 Partly cloudy - 13.2 1017.3 0.0
21/09:16am NNW 11 15 - - - - 10 Partly cloudy - 12.9 1017.2 0.0
21/09:00am NW 13 17 - - - - 4 Cloudy Showers 12.7 1017.2 9.4
21/08:49am NNW 13 18 - - - - 5 Partly cloudy - 12.8 1017.2 9.2
21/08:30am NW 12 17 - - - - 10 Partly cloudy - 13.3 1017.0 9.2
21/08:00am NW 13 18 - - - - 10 Partly cloudy - 13.3 1016.5 9.2
21/07:30am NW 12 17 - - - - 10 Partly cloudy - 13.1 1016.2 9.2
21/07:00am NW 15 22 - - - - 10 Partly cloudy - 13.0 1015.9 9.2
21/06:37am NW 16 22 - - - - 10 Partly cloudy - 12.9 1015.6 9.2
21/06:32am NW 16 22 - - - - 10 Partly cloudy - 12.7 1015.6 9.2
21/06:30am NW 16 22 - - - - 10 Partly cloudy - 12.7 1015.6 9.2
21/06:17am NW 17 25 - - - - 4 Partly cloudy - 12.7 1015.7 9.2
21/06:04am NW 16 26 - - - - 5 Partly cloudy - 12.7 1015.5 9.2
21/06:00am NW 14 24 - - - - 5 Cloudy Showers 12.7 1015.4 9.0
21/05:53am NW 13 16 - - - - 10 Partly cloudy - 12.8 1015.3 8.6
21/05:40am NW 18 28 - - - - 3 Partly cloudy - 12.6 1015.4 8.6
21/05:30am WNW 19 25 - - - - 4 Partly cloudy - 12.6 1015.4 8.2
21/05:28am WNW 18 25 - - - - 5 Partly cloudy - 12.8 1015.4 8.2
21/05:00am NW 16 21 - - - - 10 Partly cloudy - 13.3 1015.0 8.0
21/04:33am NW 13 19 - - - - 10 Partly cloudy - 13.1 1014.6 8.0
21/04:30am NW 13 19 - - - - 9 Partly cloudy - 13.0 1014.6 8.0
21/04:10am NW 14 21 - - - - 10 Partly cloudy - 13.3 1014.7 8.0
21/04:00am NW 15 20 - - - - 10 Partly cloudy - 13.1 1014.8 8.0
21/03:47am NW 18 26 - - - - 10 Partly cloudy - 13.2 1014.7 8.0
21/03:38am NW 16 26 - - - - 10 Partly cloudy - 13.5 1014.6 8.0
21/03:37am NW 16 25 - - - - 10 Partly cloudy - 13.6 1014.6 8.0
21/03:33am NW 15 25 - - - - 10 Partly cloudy - 13.5 1014.5 8.0
21/03:30am NW 16 21 - - - - 10 Partly cloudy - 13.5 1014.5 8.0
21/03:00am NW 16 23 - - - - 10 Cloudy - 13.5 1014.4 8.0
21/02:30am NW 16 22 - - - - 10 Partly cloudy - 13.1 1014.0 8.0
21/02:00am NW 19 26 - - - - 10 Partly cloudy - 13.2 1013.9 8.0
21/01:37am NW 17 27 - - - - 7 Partly cloudy - 13.1 1013.6 7.8
21/01:30am NW 17 22 - - - - 8 Partly cloudy - 13.4 1013.6 7.8
21/01:20am NW 20 31 - - - - 10 Partly cloudy - 13.3 1013.5 7.8
21/01:19am NW 20 31 - - - - 10 Partly cloudy - 13.3 1013.4 7.8
21/01:16am NW 20 27 - - - - 10 Partly cloudy - 13.2 1013.4 7.8
21/01:00am NW 22 37 - - - - 2 Partly cloudy - 12.8 1013.5 7.8
21/12:59am NW 23 37 - - - - 4 Partly cloudy - 12.8 1013.5 7.4
21/12:57am NW 21 37 - - - - 5 Partly cloudy - 13.1 1013.4 6.6
21/12:56am NW 21 28 - - - - 5 Partly cloudy - 13.2 1013.4 6.6
21/12:51am NW 21 28 - - - - 5 Partly cloudy - 13.2 1013.4 6.6
21/12:45am NW 20 27 - - - - 9 Partly cloudy - 13.4 1013.3 6.6
21/12:37am NW 20 28 - - - - 7 Partly cloudy - 13.5 1013.3 6.6
21/12:32am NW 21 29 - - - - 7 Partly cloudy - 13.4 1013.3 6.6
21/12:30am NW 22 30 - - - - 8 Partly cloudy - 13.4 1013.3 6.6
21/12:20am NW 23 34 - - - - 3 Partly cloudy - 13.3 1013.2 6.6
21/12:16am NW 22 34 - - - - 5 Partly cloudy - 13.6 1013.2 6.2
21/12:12am NW 23 34 - - - - 8 Partly cloudy - 13.6 1013.1 6.2
21/12:00am NW 23 32 - - - - 10 Mostly cloudy Rain 13.6 1012.9 6.2
 
Date/Time
EST
Wind Sea
Height
m
Swell Vis
km
Cloud Weather Temp
°C
Press
hPa
Rain since
9am
mm
Dir  Spd
kts
Gust
kts
Height
m
Period
s
Dir
20/11:51pm NNW 21 31 - - - - 10 Partly cloudy - 13.5 1012.8 6.2
20/11:41pm NW 23 31 - - - - 10 Partly cloudy - 13.4 1012.9 6.2
20/11:30pm NNW 23 29 - - - - 3 Partly cloudy - 13.4 1012.7 6.2
20/11:20pm NNW 21 30 - - - - 5 Partly cloudy - 13.7 1012.7 5.6
20/11:15pm NNW 20 26 - - - - 10 Partly cloudy - 13.7 1012.6 5.0
20/11:11pm NNW 19 25 - - - - 10 Partly cloudy - 13.6 1012.7 5.0
20/11:00pm NNW 21 31 - - - - 4 Partly cloudy - 13.4 1012.8 5.0
20/10:57pm NNW 21 31 - - - - 4 Partly cloudy - 13.6 1012.8 5.0
20/10:56pm NNW 20 31 - - - - 4 Partly cloudy - 13.6 1012.7 5.0
20/10:54pm NNW 19 26 - - - - 5 Partly cloudy - 13.6 1012.7 4.8
20/10:40pm NNW 19 29 - - - - 10 Partly cloudy - 13.6 1012.7 4.2
20/10:36pm NNW 19 26 - - - - 10 Partly cloudy - 13.4 1012.7 4.2
20/10:30pm NNW 20 27 - - - - 9 Partly cloudy - 13.5 1012.7 4.2
20/10:18pm NNW 18 27 - - - - 5 Partly cloudy - 13.3 1012.7 4.2
20/10:04pm N 16 21 - - - - 10 Partly cloudy - 13.0 1012.9 3.8
20/10:00pm N 16 21 - - - - 10 Partly cloudy - 12.9 1012.9 3.8
20/09:47pm N 15 21 - - - - 5 Partly cloudy - 13.0 1012.9 3.6
20/09:30pm N 11 17 - - - - 10 Partly cloudy - 13.0 1012.7 2.8
20/09:00pm N 12 16 - - - - 10 Cloudy Showers 13.4 1012.9 2.0
20/08:30pm N 11 15 - - - - 10 Partly cloudy - 13.1 1013.2 1.6
20/08:00pm NNE 8 11 - - - - 10 Partly cloudy - 13.1 1013.4 1.6
20/07:30pm N 9 12 - - - - 10 Partly cloudy - 13.1 1013.6 1.4
20/07:00pm N 9 13 - - - - 10 Partly cloudy - 13.2 1013.5 1.4
20/06:30pm N 12 16 - - - - 10 Partly cloudy - 13.4 1013.6 1.4
20/06:00pm N 11 14 - - - - 10 Cloudy - 13.5 1013.6 1.4
20/05:30pm N 10 13 - - - - 10 Partly cloudy - 13.8 1013.7 1.4
20/05:00pm N 12 16 - - - - 10 Partly cloudy - 13.9 1013.8 1.4
20/04:30pm N 12 17 - - - - 10 Partly cloudy - 14.7 1013.8 1.4
20/04:00pm N 11 19 - - - - 10 Partly cloudy - 14.8 1013.8 1.4
20/03:30pm N 12 17 - - - - 10 Partly cloudy - 15.0 1013.8 1.4
20/03:00pm N 14 26 - - - - 10 Cloudy - 15.1 1014.0 1.4
20/02:54pm N 15 26 - - - - 10 Partly cloudy - 15.2 1014.1 1.4
20/02:52pm N 15 26 - - - - 10 Partly cloudy - 15.1 1014.0 1.4
20/02:30pm NNE 9 13 - - - - 10 Partly cloudy - 15.3 1013.5 1.4
20/02:00pm NNE 11 14 - - - - 10 Partly cloudy - 14.8 1013.7 1.4
20/01:30pm NNE 10 15 - - - - 10 Partly cloudy - 13.8 1014.2 1.4
20/01:00pm NE 11 17 - - - - 10 Partly cloudy - 13.1 1014.7 1.4
20/12:30pm NE 10 15 - - - - 10 Cloudy - 12.9 1015.5 1.4
20/12:00pm NNE 14 24 - - - - 10 Cloudy Rain 13.2 1016.5 0.6
20/11:30am NNE 13 23 - - - - 10 Cloudy - 13.4 1017.3 0.6
20/11:00am NNE 15 24 - - - - 10 Cloudy - 13.9 1017.6 0.4
20/10:30am NNE 13 19 - - - - 10 Cloudy - 14.0 1017.9 0.0
20/10:00am NNE 14 21 - - - - 10 Partly cloudy - 14.3 1018.1 0.0
20/09:30am NNE 11 16 - - - - 10 Cloudy - 14.4 1018.3 0.0
20/09:00am NNE 13 19 - - - - 10 Cloudy - 14.6 1018.3 0.0
20/08:30am NE 8 14 - - - - 10 Cloudy - 13.5 1018.5 0.0
20/08:00am NE 6 8 - - - - 10 Cloudy - 12.2 1019.0 0.0
20/07:30am NE 6 9 - - - - 10 Cloudy - 11.8 1019.4 0.0
20/07:00am NE 5 7 - - - - 10 Partly cloudy - 11.1 1019.7 0.0
20/06:30am NE 4 5 - - - - 10 - - 11.6 1019.9 0.0
20/06:00am NNE 7 9 - - - - 10 Cloudy - 12.4 1020.1 0.0
20/05:30am N 7 11 - - - - 10 Partly cloudy - 13.1 1020.3 0.0
20/05:00am NNW 5 7 - - - - 10 Cloudy - 12.9 1020.5 0.0
20/04:30am NNE 8 11 - - - - 10 Cloudy - 12.6 1020.3 0.0
20/04:00am NNE 8 12 - - - - 10 Partly cloudy - 12.1 1020.7 0.0
20/03:30am NE 10 14 - - - - 10 - - 11.8 1021.1 0.0
20/03:00am NNE 7 11 - - - - 10 Mostly cloudy - 11.6 1021.5 0.0
20/02:30am W 3 5 - - - - 10 - - 11.4 1021.6 0.0
20/02:00am NNE 6 11 - - - - 10 - - 11.7 1021.6 0.0
20/01:30am NE 4 6 - - - - 10 - - 10.9 1021.7 0.0
20/01:00am NNE 5 7 - - - - 10 - - 11.0 1021.9 0.0
20/12:30am NNE 8 11 - - - - 10 - - 11.3 1022.0 0.0
20/12:00am NNE 8 13 - - - - 10 Partly cloudy - 11.1 1022.2 0.0
 
Date/Time
EST
Wind Sea
Height
m
Swell Vis
km
Cloud Weather Temp
°C
Press
hPa
Rain since
9am
mm
Dir  Spd
kts
Gust
kts
Height
m
Period
s
Dir
19/11:30pm NNE 7 10 - - - - 10 - - 10.7 1022.5 0.0
19/11:00pm NNE 8 11 - - - - 10 - - 10.3 1022.8 0.0
19/10:30pm NNE 8 12 - - - - 10 - - 10.2 1023.1 0.0
19/10:00pm NNE 9 11 - - - - 10 - - 10.4 1023.5 0.0
19/09:30pm NE 7 10 - - - - 10 - - 10.0 1023.7 0.0
19/09:00pm NE 6 9 - - - - 10 Mostly clear - 10.1 1024.0 0.0
19/08:30pm NE 7 8 - - - - 10 - - 10.3 1024.1 0.0
19/08:00pm NE 7 9 - - - - 10 - - 10.2 1024.3 0.0
19/07:30pm NNE 5 7 - - - - 10 - - 8.8 1024.6 0.0
19/07:00pm ENE 1 4 - - - - 10 - - 9.6 1024.8 0.0
19/06:59pm ENE 1 4 - - - - 10 - - 9.6 1024.8 0.0
19/06:34pm ENE 2 4 - - - - 5 - - 8.6 1024.6 0.0
19/06:30pm ENE 3 4 - - - - 10 - - 9.6 1024.6 0.0
19/06:17pm ESE 3 4 - - - - 10 - - 9.1 1024.4 0.0
19/06:00pm ESE 4 4 - - - - 5 Partly cloudy - 10.0 1024.3 0.0
19/05:30pm SE 3 4 - - - - 10 - - 10.8 1024.3 0.0
19/05:00pm SE 5 6 - - - - - - - 11.3 1024.3 0.0
19/04:30pm SE 4 5 - - - - - - - 12.8 1025.0 0.0
19/04:00pm SE 4 5 - - - - - - - 13.9 1025.1 0.0
19/03:30pm SSE 5 6 - - - - - - - 14.2 1025.2 0.0
19/03:00pm SE 5 6 - - - - - - - 14.3 1025.4 0.0

Other formats

Comma delimited format used in spreadsheet applications
http://www.bom.gov.au/fwo/IDT60701/IDT60701.94956.axf

JavaScript Object Notation format (JSON) in row-major order
http://www.bom.gov.au/fwo/IDT60701/IDT60701.94956.json

Data quality

Most of these data are generated automatically and are frequently updated. Quality checks on data are not normally performed. It is possible for incorrect values to appear. Refer to information at About Latest Weather Observations and please check the disclaimer before using these data.